Downstream station:
SHEF ID: SVYA4 Illinois River at Savoy, AR
STATION TYPE:
STAGE RIV-FLOW BAT-LOAD
ft cfs volt
Ccp-Rev Ccp-Rev Ccp-Rev
(US/Central)
09/02 00:00 2.19 26 12.89
09/02 01:00 2.19 26 12.89
09/02 02:00 2.20 26 12.89
09/02 03:00 2.21 27 12.81
09/02 04:00 2.23 29 12.81
09/02 05:00 2.25 30 12.81
09/02 06:00 2.25 30 12.81
09/02 07:00 2.27 32 12.81
09/02 08:00 2.29 34 12.73
09/02 09:00 2.30 35 12.73
09/02 10:00 2.33 38 12.73
09/02 11:00 2.33 38 12.89
09/02 12:00 2.36 40 12.89
09/02 13:00 2.42 46 13.21
09/02 14:00 2.69 79 13.29
09/02 15:00 3.46 226 13.92
09/02 16:00 3.83 326 13.60
09/02 17:00 3.67 280 13.84
09/02 18:00 3.53 243 13.53
09/02 19:00 3.53 243 13.29
09/02 20:00 3.84 329 13.05
09/02 21:00 3.93 356 12.97
09/02 22:00 3.80 317 12.97
09/02 23:00 3.66 278 12.89